This is the latest recevied weather packets stored in our database for station/object KC0OOO-WX. If no packets are shown the sender has not sent any weather packets the latest 1 day(s).
| Time | Temp. | Humidity | Pressure | Rain* | Wind** | Luminosity | Snow |
|---|---|---|---|---|---|---|---|
| 1778023537 | 15° C | 33% | 1010.2 hPa | 0 mm | 0.45 m/s, 175° | - | - |
| 1778022937 | 15° C | 32% | 1010.2 hPa | 0 mm | 0.45 m/s, 173° | - | - |
| 1778022337 | 15.56° C | 31% | 1010.2 hPa | 0 mm | 1.34 m/s, 163° | - | - |
| 1778021737 | 16.67° C | 28% | 1010.2 hPa | 0 mm | 2.24 m/s, 263° | - | - |
| 1778021137 | 17.22° C | 25% | 1010.5 hPa | 0 mm | 1.34 m/s, 174° | - | - |
| 1778020537 | 16.67° C | 25% | 1010.5 hPa | 0 mm | 0.45 m/s, 239° | - | - |
| 1778019907 | 15.56° C | 25% | 1010.8 hPa | 0 mm | 1.34 m/s, 259° | - | - |
| 1778019307 | 16.11° C | 23% | 1010.8 hPa | 0 mm | 3.13 m/s, 288° | - | - |
| 1778018707 | 16.11° C | 24% | 1010.8 hPa | 0 mm | 2.68 m/s, 292° | - | - |
| 1778018107 | 16.67° C | 25% | 1011.2 hPa | 0 mm | 1.34 m/s, 231° | - | - |
| 1778017507 | 16.11° C | 24% | 1011.5 hPa | 0 mm | 1.34 m/s, 1° | - | - |
| 1778016906 | 16.11° C | 27% | 1011.5 hPa | 0 mm | 0.89 m/s, 238° | - | - |
| 1778016277 | 16.11° C | 27% | 1011.9 hPa | 0 mm | 0.89 m/s, 161° | - | - |
| 1778015676 | 15.56° C | 28% | 1011.9 hPa | 0 mm | 0.89 m/s, 148° | - | - |
| 1778015076 | 15.56° C | 28% | 1011.9 hPa | 0 mm | 2.24 m/s, 316° | - | - |
| 1778014476 | 15° C | 31% | 1012.2 hPa | 0 mm | 0.45 m/s, 212° | - | - |
| 1778013876 | 15° C | 31% | 1012.5 hPa | 0 mm | 0.45 m/s, 187° | - | - |
| 1778013276 | 14.44° C | 31% | 1012.5 hPa | 0 mm | 2.24 m/s, 213° | - | - |
| 1778012676 | 13.89° C | 31% | 1012.2 hPa | 0 mm | 0.45 m/s, 281° | - | - |
| 1778012076 | 14.44° C | 29% | 1012.2 hPa | 0 mm | 0.89 m/s, 260° | - | - |
| 1778011476 | 14.44° C | 30% | 1012.2 hPa | 0 mm | 0.89 m/s, 226° | - | - |
| 1778010876 | 15° C | 29% | 1012.5 hPa | 0 mm | 0.45 m/s, 318° | - | - |
| 1778010276 | 15° C | 29% | 1012.9 hPa | 0 mm | 0.45 m/s, 172° | - | - |
| 1778009676 | 15° C | 31% | 1012.9 hPa | 0 mm | 0.45 m/s, 180° | - | - |
| 1778009076 | 15° C | 31% | 1012.9 hPa | 0 mm | 1.34 m/s, 197° | - | - |
* Rain latest hour (hover to see other rain measurements)
** Current wind speed in m/s (hover to see current wind gust speed)